createdAt,value
2018-05-18T00:01:01.916Z,9.10
2018-05-18T00:03:29.330Z,9.43
2018-05-18T00:05:56.745Z,9.87
2018-05-18T00:08:24.216Z,10.57
2018-05-18T00:10:53.004Z,10.30
2018-05-18T00:13:20.420Z,11.60
2018-05-18T00:15:47.856Z,11.47
2018-05-18T00:18:15.365Z,11.50
2018-05-18T00:20:42.787Z,11.40
2018-05-18T00:23:10.193Z,11.33
2018-05-18T00:25:37.618Z,11.77
2018-05-18T00:28:05.036Z,13.20
2018-05-18T00:30:32.577Z,12.43
2018-05-18T00:33:00.009Z,12.60
2018-05-18T00:35:28.215Z,11.97
2018-05-18T00:37:55.689Z,10.93
2018-05-18T00:40:23.100Z,10.23
2018-05-18T00:42:50.564Z,10.33
2018-05-18T00:45:17.988Z,9.97
2018-05-18T00:47:45.414Z,9.60
2018-05-18T00:50:12.825Z,9.10
2018-05-18T00:52:40.280Z,9.37
2018-05-18T00:55:20.425Z,7.90
2018-05-18T00:57:47.843Z,8.77
2018-05-18T01:00:15.320Z,9.20
2018-05-18T01:02:42.731Z,9.67
2018-05-18T01:05:10.145Z,9.57
2018-05-18T01:07:37.591Z,10.83
2018-05-18T01:10:04.992Z,10.43
2018-05-18T01:12:32.424Z,9.97
2018-05-18T01:15:00.595Z,9.47
2018-05-18T01:17:28.830Z,9.20
2018-05-18T01:19:56.232Z,9.97
2018-05-18T01:22:23.748Z,8.90
2018-05-18T01:24:51.181Z,8.33
2018-05-18T01:27:18.592Z,9.30
2018-05-18T01:29:46.032Z,8.00
2018-05-18T01:32:14.218Z,8.57
2018-05-18T01:34:42.399Z,9.57
2018-05-18T01:37:10.607Z,8.87
2018-05-18T01:39:38.024Z,9.40
2018-05-18T01:42:05.432Z,8.83
2018-05-18T01:44:32.948Z,8.07
2018-05-18T01:47:00.386Z,9.77
2018-05-18T01:49:27.804Z,8.97
2018-05-18T01:51:55.240Z,8.97
2018-05-18T01:54:24.202Z,9.20
2018-05-18T01:56:53.316Z,9.60
2018-05-18T01:59:21.484Z,8.63
2018-05-18T02:01:48.918Z,9.03
2018-05-18T02:04:16.321Z,8.70
2018-05-18T02:06:44.542Z,7.93
2018-05-18T02:09:11.972Z,8.70
2018-05-18T02:11:39.409Z,8.60
2018-05-18T02:14:06.839Z,9.03
2018-05-18T02:16:34.267Z,9.17
2018-05-18T02:19:01.777Z,8.33
2018-05-18T02:21:29.250Z,8.60
2018-05-18T02:23:56.660Z,8.50
2018-05-18T02:26:24.203Z,8.40
2018-05-18T02:28:51.676Z,8.20
2018-05-18T02:31:19.084Z,8.03
2018-05-18T02:33:46.502Z,8.40
2018-05-18T02:36:13.932Z,8.57
2018-05-18T02:38:42.144Z,8.70
2018-05-18T02:41:09.565Z,8.50
2018-05-18T02:43:37.089Z,10.17
2018-05-18T02:46:04.496Z,7.83
2018-05-18T02:48:31.932Z,7.90
2018-05-18T02:50:59.352Z,7.83
2018-05-18T02:53:26.760Z,8.40
2018-05-18T02:55:54.230Z,8.30
2018-05-18T02:58:21.669Z,8.60
2018-05-18T03:00:49.085Z,9.77
2018-05-18T03:03:16.552Z,10.10
2018-05-18T03:05:44.130Z,9.13
2018-05-18T03:08:11.553Z,9.40
2018-05-18T03:10:39.741Z,9.70
2018-05-18T03:13:07.955Z,10.10
2018-05-18T03:15:35.411Z,9.87
2018-05-18T03:18:02.843Z,8.63
2018-05-18T03:20:30.247Z,10.03
2018-05-18T03:22:57.661Z,9.47
2018-05-18T03:25:25.084Z,9.77
2018-05-18T03:27:52.496Z,9.40
2018-05-18T03:30:19.937Z,9.37
2018-05-18T03:32:47.405Z,10.03
2018-05-18T03:35:14.852Z,9.57
2018-05-18T03:37:43.049Z,9.67
2018-05-18T03:40:10.477Z,9.43
2018-05-18T03:42:37.892Z,8.93
2018-05-18T03:45:05.355Z,8.10
2018-05-18T03:47:32.761Z,8.83
2018-05-18T03:50:00.203Z,8.50
2018-05-18T03:52:27.633Z,8.13
2018-05-18T03:54:55.827Z,7.90
2018-05-18T03:57:24.939Z,8.73
2018-05-18T03:59:52.380Z,8.60
2018-05-18T04:02:31.770Z,8.73
2018-05-18T04:05:11.870Z,8.80
2018-05-18T04:07:51.257Z,8.37
2018-05-18T04:10:18.642Z,7.90
2018-05-18T04:12:46.134Z,8.90
2018-05-18T04:15:13.535Z,8.63
2018-05-18T04:17:40.960Z,8.40
2018-05-18T04:20:08.402Z,8.70
2018-05-18T04:22:36.585Z,7.90
2018-05-18T04:25:04.809Z,7.90
2018-05-18T04:27:32.212Z,7.77
2018-05-18T04:29:59.655Z,8.10
2018-05-18T04:32:27.065Z,7.87
2018-05-18T04:34:56.220Z,8.47
2018-05-18T04:37:23.657Z,8.13
2018-05-18T04:39:51.844Z,8.17
2018-05-18T04:42:20.042Z,8.77
2018-05-18T04:44:48.222Z,7.73
2018-05-18T04:47:16.396Z,7.60
2018-05-18T04:49:44.596Z,8.17
2018-05-18T04:52:12.182Z,7.70
2018-05-18T04:54:39.651Z,7.77
2018-05-18T04:57:07.060Z,7.53
2018-05-18T04:59:34.588Z,8.23
2018-05-18T05:02:02.013Z,5.53
2018-05-18T05:04:29.516Z,8.10
2018-05-18T05:06:56.942Z,7.23
2018-05-18T05:09:24.378Z,7.43
2018-05-18T05:11:51.784Z,7.80
2018-05-18T05:14:19.217Z,7.50
2018-05-18T05:16:46.655Z,8.10
2018-05-18T05:19:14.093Z,8.60
2018-05-18T05:21:41.513Z,7.57
2018-05-18T05:24:08.932Z,8.77
2018-05-18T05:26:36.341Z,7.87
2018-05-18T05:29:03.759Z,8.03
2018-05-18T05:31:31.178Z,7.35
2018-05-18T05:33:58.612Z,6.90
2018-05-18T05:36:27.108Z,6.57
2018-05-18T05:38:55.330Z,7.20
2018-05-18T05:41:22.731Z,6.77
2018-05-18T05:43:50.243Z,6.60
2018-05-18T05:46:17.635Z,7.07
2018-05-18T05:48:45.050Z,7.00
2018-05-18T05:51:13.228Z,7.40
2018-05-18T05:53:40.650Z,7.70
2018-05-18T05:56:08.080Z,7.20
2018-05-18T05:58:35.703Z,9.90
2018-05-18T06:01:03.128Z,7.57
2018-05-18T06:03:30.537Z,7.13
2018-05-18T06:05:57.986Z,6.83
2018-05-18T06:08:25.396Z,7.47
2018-05-18T06:10:52.849Z,7.43
2018-05-18T06:13:20.254Z,7.27
2018-05-18T06:15:47.797Z,6.70
2018-05-18T06:18:15.400Z,7.27
2018-05-18T06:20:42.909Z,7.27
2018-05-18T06:23:10.316Z,7.90
2018-05-18T06:25:37.749Z,8.60
2018-05-18T06:28:05.923Z,7.07
2018-05-18T06:30:34.101Z,8.23
2018-05-18T06:33:02.289Z,7.17
2018-05-18T06:35:30.472Z,7.50
2018-05-18T06:37:58.669Z,7.10
2018-05-18T06:40:26.155Z,8.33
2018-05-18T06:42:53.609Z,7.77
2018-05-18T06:45:21.044Z,7.80
2018-05-18T06:47:48.559Z,7.13
2018-05-18T06:50:15.998Z,8.40
2018-05-18T06:52:44.188Z,8.70
2018-05-18T06:55:12.502Z,8.70
2018-05-18T06:57:39.964Z,7.90
2018-05-18T07:00:08.155Z,7.93
2018-05-18T07:02:36.307Z,8.03
2018-05-18T07:05:04.510Z,7.43
2018-05-18T07:07:31.921Z,7.77
2018-05-18T07:09:59.340Z,7.40
2018-05-18T07:12:28.442Z,7.80
2018-05-18T07:14:56.633Z,8.40
2018-05-18T07:17:24.808Z,8.30
2018-05-18T07:19:52.995Z,8.20
2018-05-18T07:22:21.185Z,8.17
2018-05-18T07:24:49.408Z,7.57
2018-05-18T07:27:16.818Z,8.47
2018-05-18T07:29:44.284Z,8.20
2018-05-18T07:32:11.794Z,7.83
2018-05-18T07:34:39.216Z,8.47
2018-05-18T07:37:06.857Z,8.60
2018-05-18T07:39:34.413Z,8.70
2018-05-18T07:42:01.892Z,7.40
2018-05-18T07:44:29.300Z,7.60
2018-05-18T07:46:56.726Z,8.40
2018-05-18T07:49:24.190Z,7.80
2018-05-18T07:51:51.653Z,7.30
2018-05-18T07:54:19.063Z,8.33
2018-05-18T07:56:46.501Z,8.30
2018-05-18T07:59:13.912Z,7.80
2018-05-18T08:01:41.421Z,7.53
2018-05-18T08:04:08.905Z,7.27
2018-05-18T08:06:36.364Z,7.83
2018-05-18T08:09:03.841Z,7.60
2018-05-18T08:11:32.028Z,8.70
2018-05-18T08:13:59.449Z,8.47
2018-05-18T08:16:27.625Z,7.77
2018-05-18T08:18:55.033Z,7.00
2018-05-18T08:21:23.226Z,7.40
2018-05-18T08:23:50.649Z,7.90
2018-05-18T08:26:18.082Z,8.40
2018-05-18T08:28:57.336Z,8.20
2018-05-18T08:31:24.758Z,8.87
2018-05-18T08:33:52.924Z,7.80
2018-05-18T08:36:20.363Z,7.10
2018-05-18T08:38:47.777Z,6.83
2018-05-18T08:41:15.988Z,7.60
2018-05-18T08:43:44.180Z,7.13
2018-05-18T08:46:11.746Z,8.13
2018-05-18T08:48:39.164Z,7.87
2018-05-18T08:51:06.597Z,7.60
2018-05-18T08:53:34.056Z,7.50
2018-05-18T08:56:01.476Z,7.80
2018-05-18T08:58:30.198Z,7.70
2018-05-18T09:00:59.302Z,7.67
2018-05-18T09:03:27.515Z,7.50
2018-05-18T09:05:54.929Z,7.93
2018-05-18T09:08:22.360Z,8.43
2018-05-18T09:10:49.777Z,8.00
2018-05-18T09:13:17.194Z,8.00
2018-05-18T09:15:44.622Z,8.00
2018-05-18T09:18:12.054Z,9.20
2018-05-18T09:20:39.599Z,7.77
2018-05-18T09:23:07.762Z,8.43
2018-05-18T09:25:35.969Z,8.77
2018-05-18T09:28:03.390Z,8.30
2018-05-18T09:30:30.800Z,7.83
2018-05-18T09:32:58.271Z,7.77
2018-05-18T09:35:25.685Z,7.60
2018-05-18T09:37:53.113Z,8.10
2018-05-18T09:40:20.539Z,8.00
2018-05-18T09:42:47.963Z,7.90
2018-05-18T09:45:15.476Z,8.90
2018-05-18T09:47:42.878Z,8.97
2018-05-18T09:50:10.353Z,8.73
2018-05-18T09:52:37.801Z,8.23
2018-05-18T09:55:06.158Z,8.23
2018-05-18T09:57:33.417Z,7.97
2018-05-18T10:00:00.900Z,7.90
2018-05-18T10:02:28.414Z,7.43
2018-05-18T10:04:56.568Z,8.83
2018-05-18T10:07:24.760Z,8.37
2018-05-18T10:09:52.949Z,7.90
2018-05-18T10:12:21.190Z,7.70
2018-05-18T10:14:48.686Z,7.60
2018-05-18T10:17:16.196Z,8.00
2018-05-18T10:19:43.612Z,7.80
2018-05-18T10:22:11.044Z,8.67
2018-05-18T10:24:38.516Z,8.00
2018-05-18T10:27:05.958Z,8.03
2018-05-18T10:29:34.124Z,8.20
2018-05-18T10:32:01.534Z,8.70
2018-05-18T10:34:28.991Z,8.50
2018-05-18T10:36:57.164Z,7.40
2018-05-18T10:39:24.585Z,7.40
2018-05-18T10:41:52.011Z,8.03
2018-05-18T10:44:19.446Z,8.20
2018-05-18T10:46:46.893Z,8.70
2018-05-18T10:49:14.344Z,8.50
2018-05-18T10:51:41.769Z,8.13
2018-05-18T10:54:09.956Z,8.40
2018-05-18T10:56:38.120Z,7.93
2018-05-18T10:59:06.341Z,8.70
2018-05-18T11:01:34.552Z,9.40
2018-05-18T11:04:01.957Z,8.43
2018-05-18T11:06:29.465Z,8.60
2018-05-18T11:08:56.887Z,9.70
2018-05-18T11:11:24.292Z,9.30
2018-05-18T11:13:51.740Z,8.43
2018-05-18T11:16:19.133Z,8.80
2018-05-18T11:18:47.392Z,8.43
2018-05-18T11:21:14.815Z,9.40
2018-05-18T11:23:42.273Z,9.67
2018-05-18T11:26:09.746Z,8.93
2018-05-18T11:28:37.152Z,9.50
2018-05-18T11:31:04.557Z,9.60
2018-05-18T11:33:32.840Z,10.65
2018-05-18T11:36:02.696Z,10.57
2018-05-18T11:38:30.118Z,9.83
2018-05-18T11:40:57.519Z,10.30
2018-05-18T11:43:24.944Z,9.70
2018-05-18T11:45:52.457Z,8.53
2018-05-18T11:48:19.925Z,9.43
2018-05-18T11:50:48.088Z,9.70
2018-05-18T11:53:16.336Z,10.17
2018-05-18T11:55:43.763Z,9.13
2018-05-18T11:58:11.202Z,9.80
2018-05-18T12:00:39.392Z,9.70
2018-05-18T12:03:07.577Z,8.47
2018-05-18T12:05:35.009Z,9.53
2018-05-18T12:08:03.472Z,9.90
2018-05-18T12:10:30.864Z,9.57
2018-05-18T12:12:58.284Z,9.27
2018-05-18T12:15:26.468Z,9.77
2018-05-18T12:17:54.644Z,9.23
2018-05-18T12:20:22.862Z,10.10
2018-05-18T12:22:51.044Z,10.03
2018-05-18T12:25:18.456Z,9.83
2018-05-18T12:27:45.883Z,10.03
2018-05-18T12:30:13.315Z,10.30
2018-05-18T12:32:41.497Z,10.23
2018-05-18T12:35:08.973Z,10.63
2018-05-18T12:37:36.398Z,10.00
2018-05-18T12:40:03.941Z,10.30
2018-05-18T12:42:31.372Z,10.53
2018-05-18T12:44:58.805Z,9.77
2018-05-18T12:47:26.225Z,11.10
2018-05-18T12:49:54.410Z,10.70
2018-05-18T12:52:22.601Z,10.07
2018-05-18T12:54:50.790Z,9.30
2018-05-18T12:57:19.015Z,10.07
2018-05-18T12:59:46.488Z,10.17
2018-05-18T13:02:13.904Z,10.57
2018-05-18T13:04:42.115Z,10.60
2018-05-18T13:07:10.280Z,12.03
2018-05-18T13:09:38.469Z,10.43
2018-05-18T13:12:06.661Z,11.00
2018-05-18T13:14:34.164Z,10.07
2018-05-18T13:17:01.579Z,11.17
2018-05-18T13:19:29.765Z,10.40
2018-05-18T13:21:57.953Z,10.40
2018-05-18T13:24:26.143Z,10.27
2018-05-18T13:26:54.320Z,11.50
2018-05-18T13:29:21.840Z,10.57
2018-05-18T13:31:49.270Z,10.63
2018-05-18T13:34:17.477Z,10.03
2018-05-18T13:36:44.912Z,9.83
2018-05-18T13:39:13.133Z,10.17
2018-05-18T13:41:40.612Z,10.10
2018-05-18T13:44:08.028Z,10.40
2018-05-18T13:46:36.258Z,10.20
2018-05-18T13:49:05.237Z,9.68
2018-05-18T13:51:34.330Z,9.80
2018-05-18T13:54:01.759Z,10.10
2018-05-18T13:56:29.176Z,9.77
2018-05-18T13:58:57.388Z,9.77
2018-05-18T14:01:24.803Z,9.73
2018-05-18T14:03:52.336Z,9.73
2018-05-18T14:06:19.770Z,10.03
2018-05-18T14:08:47.181Z,10.20
2018-05-18T14:11:14.612Z,9.47
2018-05-18T14:13:42.857Z,10.80
2018-05-18T14:16:10.304Z,10.90
2018-05-18T14:18:37.720Z,9.80
2018-05-18T14:21:05.912Z,10.33
2018-05-18T14:23:33.331Z,9.90
2018-05-18T14:26:00.748Z,9.73
2018-05-18T14:28:28.981Z,10.40
2018-05-18T14:30:56.387Z,10.60
2018-05-18T14:33:24.578Z,11.30
2018-05-18T14:35:52.808Z,9.90
2018-05-18T14:38:20.227Z,10.80
2018-05-18T14:40:47.660Z,10.40
2018-05-18T14:43:15.126Z,10.67
2018-05-18T14:45:42.541Z,10.87
2018-05-18T14:48:10.024Z,11.30
2018-05-18T14:50:37.376Z,10.20
2018-05-18T14:53:05.741Z,10.17
2018-05-18T14:55:33.187Z,9.73
2018-05-18T14:58:00.621Z,9.90
2018-05-18T15:00:28.805Z,11.20
2018-05-18T15:02:57.018Z,10.70
2018-05-18T15:05:25.204Z,10.30
2018-05-18T15:07:52.616Z,9.97
2018-05-18T15:10:20.796Z,10.70
2018-05-18T15:12:48.237Z,11.30
2018-05-18T15:15:15.710Z,10.93
2018-05-18T15:17:43.117Z,10.10
2018-05-18T15:20:10.538Z,10.60
2018-05-18T15:22:37.978Z,10.37
2018-05-18T15:25:07.105Z,10.43
2018-05-18T15:27:34.609Z,11.47
2018-05-18T15:30:01.996Z,11.63
2018-05-18T15:32:30.927Z,11.57
2018-05-18T15:34:59.127Z,10.60
2018-05-18T15:37:26.722Z,10.53
2018-05-18T15:39:54.148Z,11.23
2018-05-18T15:42:22.325Z,10.43
2018-05-18T15:44:49.760Z,11.43
2018-05-18T15:47:17.188Z,11.40
2018-05-18T15:49:44.698Z,10.67
2018-05-18T15:52:12.112Z,10.33
2018-05-18T15:54:40.307Z,11.77
2018-05-18T15:57:08.501Z,11.80
2018-05-18T15:59:36.852Z,11.40
2018-05-18T16:02:04.382Z,10.63
2018-05-18T16:04:31.805Z,10.40
2018-05-18T16:06:59.987Z,11.40
2018-05-18T16:09:27.419Z,11.57
2018-05-18T16:11:55.475Z,11.83
2018-05-18T16:14:22.873Z,11.03
2018-05-18T16:16:50.328Z,11.23
2018-05-18T16:19:17.816Z,11.43
2018-05-18T16:21:45.488Z,11.23
2018-05-18T16:24:12.914Z,11.63
2018-05-18T16:26:40.387Z,11.73
2018-05-18T16:29:07.800Z,11.63
2018-05-18T16:31:35.307Z,11.97
2018-05-18T16:34:02.705Z,12.50
2018-05-18T16:36:30.180Z,11.53
2018-05-18T16:38:57.636Z,11.93
2018-05-18T16:41:25.258Z,12.50
2018-05-18T16:43:52.744Z,11.93
2018-05-18T16:46:20.960Z,11.43
2018-05-18T16:48:48.472Z,11.70
2018-05-18T16:51:17.123Z,10.30
2018-05-18T16:53:44.728Z,11.10
2018-05-18T16:56:12.163Z,13.10
2018-05-18T16:58:40.409Z,11.67
2018-05-18T17:01:08.197Z,11.75
2018-05-18T17:03:35.710Z,12.03
2018-05-18T17:06:03.128Z,12.87
2018-05-18T17:08:30.553Z,12.07
2018-05-18T17:10:58.012Z,11.93
2018-05-18T17:13:25.424Z,11.93
2018-05-18T17:15:52.848Z,12.87
2018-05-18T17:18:20.280Z,11.60
2018-05-18T17:20:47.708Z,12.80
2018-05-18T17:23:15.140Z,12.20
2018-05-18T17:25:42.611Z,12.23
2018-05-18T17:28:10.048Z,12.83
2018-05-18T17:30:39.168Z,12.13
2018-05-18T17:33:07.390Z,11.20
2018-05-18T17:35:35.529Z,12.10
2018-05-18T17:38:02.970Z,12.43
2018-05-18T17:40:30.429Z,12.70
2018-05-18T17:42:57.865Z,12.43
2018-05-18T17:45:25.303Z,12.67
2018-05-18T17:47:52.816Z,12.53
2018-05-18T17:50:20.244Z,12.27
2018-05-18T17:52:47.717Z,12.77
2018-05-18T17:55:15.190Z,13.13
2018-05-18T17:57:43.376Z,11.27
2018-05-18T18:00:11.587Z,12.23
2018-05-18T18:02:40.235Z,12.77
2018-05-18T18:05:07.754Z,13.43
2018-05-18T18:07:35.978Z,12.80
2018-05-18T18:10:03.386Z,13.50
2018-05-18T18:12:31.635Z,13.63
2018-05-18T18:14:59.089Z,14.90
2018-05-18T18:17:26.591Z,12.70
2018-05-18T18:19:54.022Z,14.10
2018-05-18T18:22:21.515Z,14.67
2018-05-18T18:24:48.944Z,14.73
2018-05-18T18:27:18.020Z,13.30
2018-05-18T18:29:45.652Z,12.80
2018-05-18T18:32:13.130Z,14.07
2018-05-18T18:34:40.553Z,14.60
2018-05-18T18:37:07.981Z,14.93
2018-05-18T18:39:35.397Z,14.13
2018-05-18T18:42:02.879Z,14.90
2018-05-18T18:44:30.292Z,13.47
2018-05-18T18:46:57.704Z,13.23
2018-05-18T18:49:25.241Z,13.27
2018-05-18T18:51:52.644Z,13.67
2018-05-18T18:54:20.065Z,13.00
2018-05-18T18:56:47.491Z,16.83
2018-05-18T18:59:15.000Z,14.90
2018-05-18T19:01:42.515Z,15.00
2018-05-18T19:04:11.420Z,13.82
2018-05-18T19:06:38.851Z,13.93
2018-05-18T19:09:06.267Z,13.70
2018-05-18T19:11:33.797Z,14.53
2018-05-18T19:14:01.230Z,13.73
2018-05-18T19:16:28.643Z,15.57
2018-05-18T19:18:56.868Z,14.27
2018-05-18T19:21:24.296Z,14.07
2018-05-18T19:23:52.488Z,13.90
2018-05-18T19:26:19.973Z,14.73
2018-05-18T19:28:47.453Z,15.53
2018-05-18T19:31:14.868Z,15.60
2018-05-18T19:33:43.095Z,14.73
2018-05-18T19:36:11.969Z,14.60
2018-05-18T19:38:41.088Z,15.30
2018-05-18T19:41:08.581Z,14.73
2018-05-18T19:43:36.005Z,14.67
2018-05-18T19:46:04.200Z,14.73
2018-05-18T19:48:32.389Z,15.20
2018-05-18T19:51:00.576Z,14.40
2018-05-18T19:53:28.786Z,14.33
2018-05-18T19:55:56.209Z,14.97
2018-05-18T19:58:23.848Z,15.13
2018-05-18T20:00:51.270Z,14.53
2018-05-18T20:03:19.446Z,15.20
2018-05-18T20:05:47.668Z,15.37
2018-05-18T20:08:15.144Z,14.37
2018-05-18T20:10:42.568Z,15.00
2018-05-18T20:13:10.075Z,15.13
2018-05-18T20:15:37.498Z,16.07
2018-05-18T20:18:05.012Z,16.40
2018-05-18T20:20:33.298Z,15.43
2018-05-18T20:23:00.720Z,14.63
2018-05-18T20:25:28.239Z,17.63
2018-05-18T20:27:55.809Z,14.50
2018-05-18T20:30:23.976Z,16.50
2018-05-18T20:32:52.183Z,15.47
2018-05-18T20:35:19.599Z,15.93
2018-05-18T20:37:47.024Z,16.00
2018-05-18T20:40:14.457Z,15.50
2018-05-18T20:42:43.188Z,15.30
2018-05-18T20:45:10.639Z,15.47
2018-05-18T20:47:38.020Z,15.10
2018-05-18T20:50:05.500Z,16.97
2018-05-18T20:52:32.915Z,16.23
2018-05-18T20:55:00.332Z,15.73
2018-05-18T20:57:27.744Z,16.40
2018-05-18T20:59:55.160Z,16.90
2018-05-18T21:02:22.588Z,18.10
2018-05-18T21:04:49.997Z,16.40
2018-05-18T21:07:17.432Z,16.53
2018-05-18T21:09:45.651Z,16.63
2018-05-18T21:12:13.127Z,18.62
2018-05-18T21:14:41.310Z,17.07
2018-05-18T21:17:08.726Z,17.83
2018-05-18T21:19:36.152Z,17.03
2018-05-18T21:22:03.571Z,16.80
2018-05-18T21:24:31.000Z,17.30
2018-05-18T21:26:58.438Z,17.03
2018-05-18T21:29:25.922Z,17.30
2018-05-18T21:31:53.337Z,15.90
2018-05-18T21:34:20.757Z,16.73
2018-05-18T21:36:48.185Z,16.53
2018-05-18T21:39:15.723Z,16.97
2018-05-18T21:41:44.409Z,15.55
2018-05-18T21:44:11.833Z,15.57
2018-05-18T21:46:42.408Z,16.20
2018-05-18T21:49:09.877Z,16.70
2018-05-18T21:51:37.326Z,16.70
2018-05-18T21:54:04.749Z,16.00
2018-05-18T21:56:32.164Z,17.60
2018-05-18T21:58:59.712Z,18.10
2018-05-18T22:01:27.138Z,18.07
2018-05-18T22:03:54.587Z,18.27
2018-05-18T22:06:22.049Z,19.47
2018-05-18T22:08:49.511Z,19.00
2018-05-18T22:11:16.990Z,18.17
2018-05-18T22:13:44.425Z,20.00
2018-05-18T22:16:12.616Z,19.57
2018-05-18T22:18:40.795Z,18.30
2018-05-18T22:21:08.973Z,17.70
2018-05-18T22:23:36.397Z,18.17
2018-05-18T22:26:03.854Z,17.13
2018-05-18T22:28:31.331Z,17.90
2018-05-18T22:30:58.759Z,18.03
2018-05-18T22:33:26.175Z,18.87
2018-05-18T22:35:53.588Z,17.50
2018-05-18T22:38:21.789Z,17.10
2018-05-18T22:40:49.989Z,18.77
2018-05-18T22:43:17.412Z,17.43
2018-05-18T22:45:44.848Z,19.13
2018-05-18T22:48:12.275Z,18.83
2018-05-18T22:50:40.494Z,19.17
2018-05-18T22:53:07.933Z,19.95
2018-05-18T22:55:36.126Z,18.50
2018-05-18T22:58:04.324Z,19.03
2018-05-18T23:00:31.770Z,19.47
2018-05-18T23:02:59.959Z,18.93
2018-05-18T23:05:28.185Z,18.57
2018-05-18T23:07:55.588Z,19.03
2018-05-18T23:10:23.018Z,16.57
2018-05-18T23:12:50.433Z,17.40
2018-05-18T23:15:18.660Z,15.80
2018-05-18T23:17:46.826Z,15.90
2018-05-18T23:20:15.936Z,16.20
2018-05-18T23:22:43.367Z,16.40
2018-05-18T23:25:10.781Z,15.40
2018-05-18T23:27:38.209Z,14.87
2018-05-18T23:30:05.734Z,15.50
2018-05-18T23:32:33.907Z,14.00
2018-05-18T23:35:02.172Z,13.17
2018-05-18T23:37:30.371Z,13.17
2018-05-18T23:39:58.549Z,12.33
2018-05-18T23:42:26.735Z,12.33
2018-05-18T23:44:54.941Z,12.37
2018-05-18T23:47:22.425Z,12.43
2018-05-18T23:52:16.904Z,11.83
2018-05-18T23:54:46.051Z,11.73
2018-05-18T23:57:13.464Z,11.70
2018-05-18T23:59:40.981Z,12.60
